sensor_id;sensor_type;location;lat;lon;timestamp;temperature;humidity
56478;DHT22;42382;53.210;5.772;2023-12-20T00:02:17;6.60;92.10
56478;DHT22;42382;53.210;5.772;2023-12-20T00:04:42;6.60;92.20
56478;DHT22;42382;53.210;5.772;2023-12-20T00:07:08;6.50;92.30
56478;DHT22;42382;53.210;5.772;2023-12-20T00:09:33;6.60;92.40
56478;DHT22;42382;53.210;5.772;2023-12-20T00:11:59;6.50;92.50
56478;DHT22;42382;53.210;5.772;2023-12-20T00:14:25;6.40;92.50
56478;DHT22;42382;53.210;5.772;2023-12-20T00:16:50;6.40;92.60
56478;DHT22;42382;53.210;5.772;2023-12-20T00:19:16;6.40;92.70
56478;DHT22;42382;53.210;5.772;2023-12-20T00:21:42;6.40;92.80
56478;DHT22;42382;53.210;5.772;2023-12-20T00:24:07;6.40;92.90
56478;DHT22;42382;53.210;5.772;2023-12-20T00:26:33;6.40;93.00
56478;DHT22;42382;53.210;5.772;2023-12-20T00:28:59;6.50;92.90
56478;DHT22;42382;53.210;5.772;2023-12-20T00:31:25;6.60;92.80
56478;DHT22;42382;53.210;5.772;2023-12-20T00:33:50;6.50;92.70
56478;DHT22;42382;53.210;5.772;2023-12-20T00:36:16;6.60;92.50
56478;DHT22;42382;53.210;5.772;2023-12-20T00:38:42;6.60;92.50
56478;DHT22;42382;53.210;5.772;2023-12-20T00:41:07;6.60;92.60
56478;DHT22;42382;53.210;5.772;2023-12-20T00:43:33;6.60;92.60
56478;DHT22;42382;53.210;5.772;2023-12-20T00:45:58;6.70;92.70
56478;DHT22;42382;53.210;5.772;2023-12-20T00:48:25;6.70;92.70
56478;DHT22;42382;53.210;5.772;2023-12-20T00:50:52;6.70;92.70
56478;DHT22;42382;53.210;5.772;2023-12-20T00:53:18;6.70;92.70
56478;DHT22;42382;53.210;5.772;2023-12-20T00:55:44;6.70;92.70
56478;DHT22;42382;53.210;5.772;2023-12-20T00:58:10;6.80;92.80
56478;DHT22;42382;53.210;5.772;2023-12-20T01:00:36;6.80;92.80
56478;DHT22;42382;53.210;5.772;2023-12-20T01:03:01;6.80;92.60
56478;DHT22;42382;53.210;5.772;2023-12-20T01:05:27;6.80;92.70
56478;DHT22;42382;53.210;5.772;2023-12-20T01:07:52;6.90;92.60
56478;DHT22;42382;53.210;5.772;2023-12-20T01:10:18;6.90;92.60
56478;DHT22;42382;53.210;5.772;2023-12-20T01:12:44;6.90;92.70
56478;DHT22;42382;53.210;5.772;2023-12-20T01:15:10;6.90;92.70
56478;DHT22;42382;53.210;5.772;2023-12-20T01:17:35;6.80;92.70
56478;DHT22;42382;53.210;5.772;2023-12-20T01:20:01;6.90;92.80
56478;DHT22;42382;53.210;5.772;2023-12-20T01:22:27;6.90;92.80
56478;DHT22;42382;53.210;5.772;2023-12-20T01:24:52;6.90;92.60
56478;DHT22;42382;53.210;5.772;2023-12-20T01:27:18;6.90;92.70
56478;DHT22;42382;53.210;5.772;2023-12-20T01:29:44;7.00;92.70
56478;DHT22;42382;53.210;5.772;2023-12-20T01:32:09;7.00;92.60
56478;DHT22;42382;53.210;5.772;2023-12-20T01:34:35;7.00;92.60
56478;DHT22;42382;53.210;5.772;2023-12-20T01:37:01;7.10;92.50
56478;DHT22;42382;53.210;5.772;2023-12-20T01:39:27;7.10;92.40
56478;DHT22;42382;53.210;5.772;2023-12-20T01:41:53;7.10;92.20
56478;DHT22;42382;53.210;5.772;2023-12-20T01:44:19;7.10;92.10
56478;DHT22;42382;53.210;5.772;2023-12-20T01:46:45;7.10;92.10
56478;DHT22;42382;53.210;5.772;2023-12-20T01:49:11;7.10;91.90
56478;DHT22;42382;53.210;5.772;2023-12-20T01:51:37;7.10;91.80
56478;DHT22;42382;53.210;5.772;2023-12-20T01:54:03;7.10;91.90
56478;DHT22;42382;53.210;5.772;2023-12-20T01:56:30;7.10;92.00
56478;DHT22;42382;53.210;5.772;2023-12-20T01:58:58;7.10;91.90
56478;DHT22;42382;53.210;5.772;2023-12-20T02:01:24;7.10;91.80
56478;DHT22;42382;53.210;5.772;2023-12-20T02:03:50;7.10;91.80
56478;DHT22;42382;53.210;5.772;2023-12-20T02:06:18;7.10;91.70
56478;DHT22;42382;53.210;5.772;2023-12-20T02:08:43;7.10;91.60
56478;DHT22;42382;53.210;5.772;2023-12-20T02:11:10;7.20;91.70
56478;DHT22;42382;53.210;5.772;2023-12-20T02:13:36;7.10;91.40
56478;DHT22;42382;53.210;5.772;2023-12-20T02:16:01;7.20;91.40
56478;DHT22;42382;53.210;5.772;2023-12-20T02:18:27;7.10;91.30
56478;DHT22;42382;53.210;5.772;2023-12-20T02:20:53;7.10;91.10
56478;DHT22;42382;53.210;5.772;2023-12-20T02:23:19;7.10;91.20
56478;DHT22;42382;53.210;5.772;2023-12-20T02:25:45;7.10;91.20
56478;DHT22;42382;53.210;5.772;2023-12-20T02:28:11;7.10;91.30
56478;DHT22;42382;53.210;5.772;2023-12-20T02:30:36;7.10;91.10
56478;DHT22;42382;53.210;5.772;2023-12-20T02:33:03;7.20;91.10
56478;DHT22;42382;53.210;5.772;2023-12-20T02:35:32;7.10;91.10
56478;DHT22;42382;53.210;5.772;2023-12-20T02:37:58;7.10;90.90
56478;DHT22;42382;53.210;5.772;2023-12-20T02:40:24;7.10;91.00
56478;DHT22;42382;53.210;5.772;2023-12-20T02:42:49;7.10;91.00
56478;DHT22;42382;53.210;5.772;2023-12-20T02:45:15;7.10;91.00
56478;DHT22;42382;53.210;5.772;2023-12-20T02:47:40;7.10;91.00
56478;DHT22;42382;53.210;5.772;2023-12-20T02:50:06;7.20;91.00
56478;DHT22;42382;53.210;5.772;2023-12-20T02:52:32;7.20;91.00
56478;DHT22;42382;53.210;5.772;2023-12-20T02:54:57;7.10;91.00
56478;DHT22;42382;53.210;5.772;2023-12-20T02:57:23;7.20;90.90
56478;DHT22;42382;53.210;5.772;2023-12-20T02:59:48;7.10;90.80
56478;DHT22;42382;53.210;5.772;2023-12-20T03:02:14;7.10;90.90
56478;DHT22;42382;53.210;5.772;2023-12-20T03:04:40;7.10;90.70
56478;DHT22;42382;53.210;5.772;2023-12-20T03:07:06;7.10;90.60
56478;DHT22;42382;53.210;5.772;2023-12-20T03:09:31;7.10;90.60
56478;DHT22;42382;53.210;5.772;2023-12-20T03:11:57;7.20;90.70
56478;DHT22;42382;53.210;5.772;2023-12-20T03:14:23;7.20;90.70
56478;DHT22;42382;53.210;5.772;2023-12-20T03:16:49;7.20;90.80
56478;DHT22;42382;53.210;5.772;2023-12-20T03:19:16;7.20;90.40
56478;DHT22;42382;53.210;5.772;2023-12-20T03:21:41;7.30;90.50
56478;DHT22;42382;53.210;5.772;2023-12-20T03:24:07;7.30;90.40
56478;DHT22;42382;53.210;5.772;2023-12-20T03:26:33;7.30;90.50
56478;DHT22;42382;53.210;5.772;2023-12-20T03:28:58;7.40;90.40
56478;DHT22;42382;53.210;5.772;2023-12-20T03:31:24;7.40;90.50
56478;DHT22;42382;53.210;5.772;2023-12-20T03:33:49;7.40;90.40
56478;DHT22;42382;53.210;5.772;2023-12-20T03:36:16;7.40;90.50
56478;DHT22;42382;53.210;5.772;2023-12-20T03:38:42;7.40;90.40
56478;DHT22;42382;53.210;5.772;2023-12-20T03:41:07;7.40;90.20
56478;DHT22;42382;53.210;5.772;2023-12-20T03:43:33;7.40;89.90
56478;DHT22;42382;53.210;5.772;2023-12-20T03:45:58;7.40;89.90
56478;DHT22;42382;53.210;5.772;2023-12-20T03:48:25;7.40;89.80
56478;DHT22;42382;53.210;5.772;2023-12-20T03:50:51;7.40;89.80
56478;DHT22;42382;53.210;5.772;2023-12-20T03:53:16;7.40;90.00
56478;DHT22;42382;53.210;5.772;2023-12-20T03:55:42;7.40;90.00
56478;DHT22;42382;53.210;5.772;2023-12-20T03:58:07;7.40;90.20
56478;DHT22;42382;53.210;5.772;2023-12-20T04:00:33;7.40;90.20
56478;DHT22;42382;53.210;5.772;2023-12-20T04:02:58;7.40;90.40
56478;DHT22;42382;53.210;5.772;2023-12-20T04:05:24;7.40;90.40
56478;DHT22;42382;53.210;5.772;2023-12-20T04:07:50;7.40;90.30
56478;DHT22;42382;53.210;5.772;2023-12-20T04:10:16;7.40;90.30
56478;DHT22;42382;53.210;5.772;2023-12-20T04:12:41;7.40;90.50
56478;DHT22;42382;53.210;5.772;2023-12-20T04:15:07;7.40;90.30
56478;DHT22;42382;53.210;5.772;2023-12-20T04:17:35;7.40;90.40
56478;DHT22;42382;53.210;5.772;2023-12-20T04:20:01;7.40;90.50
56478;DHT22;42382;53.210;5.772;2023-12-20T04:22:27;7.50;90.40
56478;DHT22;42382;53.210;5.772;2023-12-20T04:24:52;7.50;90.30
56478;DHT22;42382;53.210;5.772;2023-12-20T04:27:18;7.50;90.20
56478;DHT22;42382;53.210;5.772;2023-12-20T04:29:43;7.50;90.20
56478;DHT22;42382;53.210;5.772;2023-12-20T04:32:09;7.50;89.90
56478;DHT22;42382;53.210;5.772;2023-12-20T04:34:34;7.50;89.90
56478;DHT22;42382;53.210;5.772;2023-12-20T04:37:00;7.50;90.00
56478;DHT22;42382;53.210;5.772;2023-12-20T04:39:27;7.50;89.80
56478;DHT22;42382;53.210;5.772;2023-12-20T04:41:52;7.60;89.50
56478;DHT22;42382;53.210;5.772;2023-12-20T04:44:18;7.60;89.60
56478;DHT22;42382;53.210;5.772;2023-12-20T04:46:44;7.60;89.70
56478;DHT22;42382;53.210;5.772;2023-12-20T04:49:09;7.60;89.80
56478;DHT22;42382;53.210;5.772;2023-12-20T04:51:35;7.60;89.30
56478;DHT22;42382;53.210;5.772;2023-12-20T04:54:01;7.60;89.00
56478;DHT22;42382;53.210;5.772;2023-12-20T04:56:27;7.70;89.00
56478;DHT22;42382;53.210;5.772;2023-12-20T04:58:54;7.60;89.10
56478;DHT22;42382;53.210;5.772;2023-12-20T05:01:19;7.60;89.10
56478;DHT22;42382;53.210;5.772;2023-12-20T05:03:46;7.70;89.20
56478;DHT22;42382;53.210;5.772;2023-12-20T05:06:11;7.70;89.30
56478;DHT22;42382;53.210;5.772;2023-12-20T05:08:37;7.70;89.20
56478;DHT22;42382;53.210;5.772;2023-12-20T05:11:03;7.70;89.20
56478;DHT22;42382;53.210;5.772;2023-12-20T05:13:29;7.70;89.10
56478;DHT22;42382;53.210;5.772;2023-12-20T05:15:54;7.70;89.50
56478;DHT22;42382;53.210;5.772;2023-12-20T05:18:21;7.70;89.30
56478;DHT22;42382;53.210;5.772;2023-12-20T05:20:46;7.70;89.40
56478;DHT22;42382;53.210;5.772;2023-12-20T05:23:12;7.70;88.90
56478;DHT22;42382;53.210;5.772;2023-12-20T05:25:38;7.80;89.30
56478;DHT22;42382;53.210;5.772;2023-12-20T05:28:04;7.80;89.20
56478;DHT22;42382;53.210;5.772;2023-12-20T05:30:30;7.80;89.10
56478;DHT22;42382;53.210;5.772;2023-12-20T05:32:56;7.80;89.40
56478;DHT22;42382;53.210;5.772;2023-12-20T05:35:21;7.80;89.50
56478;DHT22;42382;53.210;5.772;2023-12-20T05:37:49;7.80;89.20
56478;DHT22;42382;53.210;5.772;2023-12-20T05:40:14;7.80;89.20
56478;DHT22;42382;53.210;5.772;2023-12-20T05:42:40;7.80;88.90
56478;DHT22;42382;53.210;5.772;2023-12-20T05:45:06;7.80;89.00
56478;DHT22;42382;53.210;5.772;2023-12-20T05:47:32;7.90;89.20
56478;DHT22;42382;53.210;5.772;2023-12-20T05:49:57;7.80;89.00
56478;DHT22;42382;53.210;5.772;2023-12-20T05:52:23;7.80;88.80
56478;DHT22;42382;53.210;5.772;2023-12-20T05:54:49;7.90;89.00
56478;DHT22;42382;53.210;5.772;2023-12-20T05:57:14;7.80;89.10
56478;DHT22;42382;53.210;5.772;2023-12-20T05:59:40;7.80;89.00
56478;DHT22;42382;53.210;5.772;2023-12-20T06:02:05;7.90;89.10
56478;DHT22;42382;53.210;5.772;2023-12-20T06:04:31;7.90;89.00
56478;DHT22;42382;53.210;5.772;2023-12-20T06:06:57;7.90;89.00
56478;DHT22;42382;53.210;5.772;2023-12-20T06:09:22;7.90;89.00
56478;DHT22;42382;53.210;5.772;2023-12-20T06:11:48;7.90;89.30
56478;DHT22;42382;53.210;5.772;2023-12-20T06:14:14;7.90;89.00
56478;DHT22;42382;53.210;5.772;2023-12-20T06:16:39;7.90;89.10
56478;DHT22;42382;53.210;5.772;2023-12-20T06:19:05;7.90;89.00
56478;DHT22;42382;53.210;5.772;2023-12-20T06:21:30;7.90;89.00
56478;DHT22;42382;53.210;5.772;2023-12-20T06:23:56;7.90;89.00
56478;DHT22;42382;53.210;5.772;2023-12-20T06:26:22;7.90;88.70
56478;DHT22;42382;53.210;5.772;2023-12-20T06:28:47;7.90;89.00
56478;DHT22;42382;53.210;5.772;2023-12-20T06:31:13;7.90;88.90
56478;DHT22;42382;53.210;5.772;2023-12-20T06:33:38;7.90;88.90
56478;DHT22;42382;53.210;5.772;2023-12-20T06:36:06;8.00;89.00
56478;DHT22;42382;53.210;5.772;2023-12-20T06:38:32;8.00;89.10
56478;DHT22;42382;53.210;5.772;2023-12-20T06:40:57;8.00;89.10
56478;DHT22;42382;53.210;5.772;2023-12-20T06:43:24;8.00;89.20
56478;DHT22;42382;53.210;5.772;2023-12-20T06:45:49;8.00;89.10
56478;DHT22;42382;53.210;5.772;2023-12-20T06:48:16;7.90;89.30
56478;DHT22;42382;53.210;5.772;2023-12-20T06:50:42;8.00;89.20
56478;DHT22;42382;53.210;5.772;2023-12-20T06:53:07;7.90;89.20
56478;DHT22;42382;53.210;5.772;2023-12-20T06:55:35;7.90;89.30
56478;DHT22;42382;53.210;5.772;2023-12-20T06:58:01;7.90;89.30
56478;DHT22;42382;53.210;5.772;2023-12-20T07:00:27;7.90;89.40
56478;DHT22;42382;53.210;5.772;2023-12-20T07:02:52;7.90;89.40
56478;DHT22;42382;53.210;5.772;2023-12-20T07:05:18;7.90;89.20
56478;DHT22;42382;53.210;5.772;2023-12-20T07:07:45;7.80;89.00
56478;DHT22;42382;53.210;5.772;2023-12-20T07:10:12;7.80;89.10
56478;DHT22;42382;53.210;5.772;2023-12-20T07:12:38;7.80;89.00
56478;DHT22;42382;53.210;5.772;2023-12-20T07:15:04;7.80;89.00
56478;DHT22;42382;53.210;5.772;2023-12-20T07:17:31;7.80;89.10
56478;DHT22;42382;53.210;5.772;2023-12-20T07:19:58;7.80;89.10
56478;DHT22;42382;53.210;5.772;2023-12-20T07:22:24;7.70;89.10
56478;DHT22;42382;53.210;5.772;2023-12-20T07:24:49;7.80;89.10
56478;DHT22;42382;53.210;5.772;2023-12-20T07:27:17;7.80;89.30
56478;DHT22;42382;53.210;5.772;2023-12-20T07:29:43;7.80;89.10
56478;DHT22;42382;53.210;5.772;2023-12-20T07:32:08;7.80;89.30
56478;DHT22;42382;53.210;5.772;2023-12-20T07:34:34;7.90;89.20
56478;DHT22;42382;53.210;5.772;2023-12-20T07:37:00;7.90;89.30
56478;DHT22;42382;53.210;5.772;2023-12-20T07:39:25;7.90;89.30
56478;DHT22;42382;53.210;5.772;2023-12-20T07:41:51;8.00;89.60
56478;DHT22;42382;53.210;5.772;2023-12-20T07:44:16;8.00;89.50
56478;DHT22;42382;53.210;5.772;2023-12-20T07:46:42;8.00;89.30
56478;DHT22;42382;53.210;5.772;2023-12-20T07:49:07;8.00;89.30
56478;DHT22;42382;53.210;5.772;2023-12-20T07:51:34;8.00;89.40
56478;DHT22;42382;53.210;5.772;2023-12-20T07:53:59;8.00;89.50
56478;DHT22;42382;53.210;5.772;2023-12-20T07:56:25;8.00;89.00
56478;DHT22;42382;53.210;5.772;2023-12-20T07:58:51;7.90;88.40
56478;DHT22;42382;53.210;5.772;2023-12-20T08:01:16;7.80;86.80
56478;DHT22;42382;53.210;5.772;2023-12-20T08:03:43;7.70;87.00
56478;DHT22;42382;53.210;5.772;2023-12-20T08:06:09;7.60;87.40
56478;DHT22;42382;53.210;5.772;2023-12-20T08:08:34;7.60;88.00
56478;DHT22;42382;53.210;5.772;2023-12-20T08:11:00;7.60;88.60
56478;DHT22;42382;53.210;5.772;2023-12-20T08:13:26;7.60;89.10
56478;DHT22;42382;53.210;5.772;2023-12-20T08:15:53;7.60;89.50
56478;DHT22;42382;53.210;5.772;2023-12-20T08:18:18;7.60;89.90
56478;DHT22;42382;53.210;5.772;2023-12-20T08:20:44;7.60;89.90
56478;DHT22;42382;53.210;5.772;2023-12-20T08:23:10;7.70;90.00
56478;DHT22;42382;53.210;5.772;2023-12-20T08:25:35;7.80;90.00
56478;DHT22;42382;53.210;5.772;2023-12-20T08:28:02;7.80;90.00
56478;DHT22;42382;53.210;5.772;2023-12-20T08:30:32;7.80;89.90
56478;DHT22;42382;53.210;5.772;2023-12-20T08:33:01;7.90;90.00
56478;DHT22;42382;53.210;5.772;2023-12-20T08:35:27;7.90;90.20
56478;DHT22;42382;53.210;5.772;2023-12-20T08:37:53;7.90;90.40
56478;DHT22;42382;53.210;5.772;2023-12-20T08:40:19;8.00;90.30
56478;DHT22;42382;53.210;5.772;2023-12-20T08:42:45;7.90;90.30
56478;DHT22;42382;53.210;5.772;2023-12-20T08:45:11;7.90;90.20
56478;DHT22;42382;53.210;5.772;2023-12-20T08:47:37;7.90;90.30
56478;DHT22;42382;53.210;5.772;2023-12-20T08:50:03;7.90;90.40
56478;DHT22;42382;53.210;5.772;2023-12-20T08:52:28;8.00;90.20
56478;DHT22;42382;53.210;5.772;2023-12-20T08:54:54;7.90;89.10
56478;DHT22;42382;53.210;5.772;2023-12-20T08:57:20;7.70;88.20
56478;DHT22;42382;53.210;5.772;2023-12-20T08:59:47;7.50;88.40
56478;DHT22;42382;53.210;5.772;2023-12-20T09:02:13;7.40;88.70
56478;DHT22;42382;53.210;5.772;2023-12-20T09:04:39;7.20;89.00
56478;DHT22;42382;53.210;5.772;2023-12-20T09:07:05;7.10;89.50
56478;DHT22;42382;53.210;5.772;2023-12-20T09:09:31;7.00;89.60
56478;DHT22;42382;53.210;5.772;2023-12-20T09:11:57;6.90;89.90
56478;DHT22;42382;53.210;5.772;2023-12-20T09:14:23;6.90;90.30
56478;DHT22;42382;53.210;5.772;2023-12-20T09:16:49;6.80;90.50
56478;DHT22;42382;53.210;5.772;2023-12-20T09:19:16;6.70;90.80
56478;DHT22;42382;53.210;5.772;2023-12-20T09:21:42;6.70;90.90
56478;DHT22;42382;53.210;5.772;2023-12-20T09:24:08;6.70;91.20
56478;DHT22;42382;53.210;5.772;2023-12-20T09:26:34;6.70;91.30
56478;DHT22;42382;53.210;5.772;2023-12-20T09:29:00;6.60;91.50
56478;DHT22;42382;53.210;5.772;2023-12-20T09:31:25;6.70;91.60
56478;DHT22;42382;53.210;5.772;2023-12-20T09:33:51;6.70;91.60
56478;DHT22;42382;53.210;5.772;2023-12-20T09:36:16;6.70;91.80
56478;DHT22;42382;53.210;5.772;2023-12-20T09:38:42;6.70;91.90
56478;DHT22;42382;53.210;5.772;2023-12-20T09:41:08;6.80;91.70
56478;DHT22;42382;53.210;5.772;2023-12-20T09:43:37;6.80;91.70
56478;DHT22;42382;53.210;5.772;2023-12-20T09:46:06;6.80;91.50
56478;DHT22;42382;53.210;5.772;2023-12-20T09:48:33;6.80;91.40
56478;DHT22;42382;53.210;5.772;2023-12-20T09:51:00;6.80;91.10
56478;DHT22;42382;53.210;5.772;2023-12-20T09:53:26;6.80;90.30
56478;DHT22;42382;53.210;5.772;2023-12-20T09:55:58;6.80;89.40
56478;DHT22;42382;53.210;5.772;2023-12-20T09:58:27;6.80;89.30
56478;DHT22;42382;53.210;5.772;2023-12-20T10:00:54;6.80;88.90
56478;DHT22;42382;53.210;5.772;2023-12-20T10:03:24;6.80;88.70
56478;DHT22;42382;53.210;5.772;2023-12-20T10:05:54;6.80;88.90
56478;DHT22;42382;53.210;5.772;2023-12-20T10:08:21;6.90;89.00
56478;DHT22;42382;53.210;5.772;2023-12-20T10:10:47;7.00;88.30
56478;DHT22;42382;53.210;5.772;2023-12-20T10:13:13;7.10;88.20
56478;DHT22;42382;53.210;5.772;2023-12-20T10:15:39;7.10;88.20
56478;DHT22;42382;53.210;5.772;2023-12-20T10:18:06;7.20;87.70
56478;DHT22;42382;53.210;5.772;2023-12-20T10:20:32;7.30;87.70
56478;DHT22;42382;53.210;5.772;2023-12-20T10:22:59;7.30;87.80
56478;DHT22;42382;53.210;5.772;2023-12-20T10:25:25;7.40;87.90
56478;DHT22;42382;53.210;5.772;2023-12-20T10:28:15;7.40;87.60
56478;DHT22;42382;53.210;5.772;2023-12-20T10:30:44;7.40;87.70
56478;DHT22;42382;53.210;5.772;2023-12-20T10:33:10;7.40;87.20
56478;DHT22;42382;53.210;5.772;2023-12-20T10:35:37;7.50;87.30
56478;DHT22;42382;53.210;5.772;2023-12-20T10:38:06;7.50;87.50
56478;DHT22;42382;53.210;5.772;2023-12-20T10:40:35;7.50;87.30
56478;DHT22;42382;53.210;5.772;2023-12-20T10:43:02;7.50;87.10
56478;DHT22;42382;53.210;5.772;2023-12-20T10:45:28;7.60;86.70
56478;DHT22;42382;53.210;5.772;2023-12-20T10:47:54;7.70;87.20
56478;DHT22;42382;53.210;5.772;2023-12-20T10:50:20;7.70;86.90
56478;DHT22;42382;53.210;5.772;2023-12-20T10:52:47;7.70;86.90
56478;DHT22;42382;53.210;5.772;2023-12-20T10:55:13;7.70;87.00
56478;DHT22;42382;53.210;5.772;2023-12-20T10:57:39;7.70;87.20
56478;DHT22;42382;53.210;5.772;2023-12-20T11:00:08;7.70;87.00
56478;DHT22;42382;53.210;5.772;2023-12-20T11:02:39;7.80;87.10
56478;DHT22;42382;53.210;5.772;2023-12-20T11:08:03;7.90;86.90
56478;DHT22;42382;53.210;5.772;2023-12-20T11:10:31;7.90;87.30
56478;DHT22;42382;53.210;5.772;2023-12-20T11:13:10;8.00;86.10
56478;DHT22;42382;53.210;5.772;2023-12-20T11:15:37;8.10;86.80
56478;DHT22;42382;53.210;5.772;2023-12-20T11:18:04;8.20;85.80
56478;DHT22;42382;53.210;5.772;2023-12-20T11:20:41;8.20;86.60
56478;DHT22;42382;53.210;5.772;2023-12-20T11:23:08;8.30;86.70
56478;DHT22;42382;53.210;5.772;2023-12-20T11:25:46;8.30;84.60
56478;DHT22;42382;53.210;5.772;2023-12-20T11:28:13;8.30;85.30
56478;DHT22;42382;53.210;5.772;2023-12-20T11:30:53;8.20;83.90
56478;DHT22;42382;53.210;5.772;2023-12-20T11:33:26;8.20;83.80
56478;DHT22;42382;53.210;5.772;2023-12-20T11:35:55;8.20;84.00
56478;DHT22;42382;53.210;5.772;2023-12-20T11:38:21;8.20;83.60
56478;DHT22;42382;53.210;5.772;2023-12-20T11:40:50;8.20;84.40
56478;DHT22;42382;53.210;5.772;2023-12-20T11:43:34;8.20;84.70
56478;DHT22;42382;53.210;5.772;2023-12-20T11:46:08;8.20;84.90
56478;DHT22;42382;53.210;5.772;2023-12-20T11:48:38;8.20;85.30
56478;DHT22;42382;53.210;5.772;2023-12-20T11:51:12;8.20;85.60
56478;DHT22;42382;53.210;5.772;2023-12-20T11:53:41;8.20;85.90
56478;DHT22;42382;53.210;5.772;2023-12-20T11:56:10;8.20;85.70
56478;DHT22;42382;53.210;5.772;2023-12-20T11:58:35;8.20;85.60
56478;DHT22;42382;53.210;5.772;2023-12-20T12:01:01;8.20;85.90
56478;DHT22;42382;53.210;5.772;2023-12-20T12:03:30;8.10;85.40
56478;DHT22;42382;53.210;5.772;2023-12-20T12:05:55;8.20;85.90
56478;DHT22;42382;53.210;5.772;2023-12-20T12:08:21;8.10;86.20
56478;DHT22;42382;53.210;5.772;2023-12-20T12:10:46;8.10;86.50
56478;DHT22;42382;53.210;5.772;2023-12-20T12:13:12;8.10;86.80
56478;DHT22;42382;53.210;5.772;2023-12-20T12:15:40;8.10;86.90
56478;DHT22;42382;53.210;5.772;2023-12-20T12:18:07;8.10;86.90
56478;DHT22;42382;53.210;5.772;2023-12-20T12:20:33;8.10;87.20
56478;DHT22;42382;53.210;5.772;2023-12-20T12:23:05;8.00;87.10
56478;DHT22;42382;53.210;5.772;2023-12-20T12:25:34;8.00;87.10
56478;DHT22;42382;53.210;5.772;2023-12-20T12:28:01;7.90;87.20
56478;DHT22;42382;53.210;5.772;2023-12-20T12:30:27;7.90;87.00
56478;DHT22;42382;53.210;5.772;2023-12-20T12:32:53;7.80;87.10
56478;DHT22;42382;53.210;5.772;2023-12-20T12:35:19;7.70;87.20
56478;DHT22;42382;53.210;5.772;2023-12-20T12:37:45;7.70;87.60
56478;DHT22;42382;53.210;5.772;2023-12-20T12:40:16;7.70;87.60
56478;DHT22;42382;53.210;5.772;2023-12-20T12:42:44;7.60;88.00
56478;DHT22;42382;53.210;5.772;2023-12-20T12:45:10;7.50;88.10
56478;DHT22;42382;53.210;5.772;2023-12-20T12:47:37;7.50;88.40
56478;DHT22;42382;53.210;5.772;2023-12-20T12:50:03;7.40;88.70
56478;DHT22;42382;53.210;5.772;2023-12-20T12:52:30;7.40;89.00
56478;DHT22;42382;53.210;5.772;2023-12-20T12:54:56;7.40;89.20
56478;DHT22;42382;53.210;5.772;2023-12-20T12:57:21;7.40;89.40
56478;DHT22;42382;53.210;5.772;2023-12-20T12:59:47;7.30;89.70
56478;DHT22;42382;53.210;5.772;2023-12-20T13:02:13;7.30;89.70
56478;DHT22;42382;53.210;5.772;2023-12-20T13:04:39;7.30;89.80
56478;DHT22;42382;53.210;5.772;2023-12-20T13:07:06;7.30;89.90
56478;DHT22;42382;53.210;5.772;2023-12-20T13:09:32;7.20;90.00
56478;DHT22;42382;53.210;5.772;2023-12-20T13:11:58;7.20;90.00
56478;DHT22;42382;53.210;5.772;2023-12-20T13:14:24;7.10;90.10
56478;DHT22;42382;53.210;5.772;2023-12-20T13:16:50;7.10;90.30
56478;DHT22;42382;53.210;5.772;2023-12-20T13:19:15;7.10;90.50
56478;DHT22;42382;53.210;5.772;2023-12-20T13:21:41;7.10;90.60
56478;DHT22;42382;53.210;5.772;2023-12-20T13:24:06;7.10;90.70
56478;DHT22;42382;53.210;5.772;2023-12-20T13:26:32;7.00;90.80
56478;DHT22;42382;53.210;5.772;2023-12-20T13:28:58;7.10;90.80
56478;DHT22;42382;53.210;5.772;2023-12-20T13:31:24;7.00;90.90
56478;DHT22;42382;53.210;5.772;2023-12-20T13:33:49;7.00;90.90
56478;DHT22;42382;53.210;5.772;2023-12-20T13:36:15;7.00;91.00
56478;DHT22;42382;53.210;5.772;2023-12-20T13:38:40;7.00;91.10
56478;DHT22;42382;53.210;5.772;2023-12-20T13:41:06;7.10;91.20
56478;DHT22;42382;53.210;5.772;2023-12-20T13:43:32;7.10;91.30
56478;DHT22;42382;53.210;5.772;2023-12-20T13:45:58;7.10;91.30
56478;DHT22;42382;53.210;5.772;2023-12-20T13:48:24;7.10;91.40
56478;DHT22;42382;53.210;5.772;2023-12-20T13:50:50;7.10;91.40
56478;DHT22;42382;53.210;5.772;2023-12-20T13:53:16;7.10;91.50
56478;DHT22;42382;53.210;5.772;2023-12-20T13:55:41;7.10;91.50
56478;DHT22;42382;53.210;5.772;2023-12-20T13:58:08;7.20;91.60
56478;DHT22;42382;53.210;5.772;2023-12-20T14:00:37;7.20;91.60
56478;DHT22;42382;53.210;5.772;2023-12-20T14:03:06;7.20;91.60
56478;DHT22;42382;53.210;5.772;2023-12-20T14:05:31;7.20;91.70
56478;DHT22;42382;53.210;5.772;2023-12-20T14:07:57;7.10;91.70
56478;DHT22;42382;53.210;5.772;2023-12-20T14:10:23;7.10;91.80
56478;DHT22;42382;53.210;5.772;2023-12-20T14:12:52;7.10;91.90
56478;DHT22;42382;53.210;5.772;2023-12-20T14:15:17;7.10;91.90
56478;DHT22;42382;53.210;5.772;2023-12-20T14:17:43;7.20;92.00
56478;DHT22;42382;53.210;5.772;2023-12-20T14:20:09;7.10;92.20
56478;DHT22;42382;53.210;5.772;2023-12-20T14:22:35;7.10;92.30
56478;DHT22;42382;53.210;5.772;2023-12-20T14:25:01;7.10;92.30
56478;DHT22;42382;53.210;5.772;2023-12-20T14:27:27;7.10;92.40
56478;DHT22;42382;53.210;5.772;2023-12-20T14:29:54;7.20;92.40
56478;DHT22;42382;53.210;5.772;2023-12-20T14:32:20;7.20;92.60
56478;DHT22;42382;53.210;5.772;2023-12-20T14:34:46;7.30;92.60
56478;DHT22;42382;53.210;5.772;2023-12-20T14:37:12;7.40;92.60
56478;DHT22;42382;53.210;5.772;2023-12-20T14:39:37;7.40;92.60
56478;DHT22;42382;53.210;5.772;2023-12-20T14:42:07;7.40;92.50
56478;DHT22;42382;53.210;5.772;2023-12-20T14:44:36;7.50;92.50
56478;DHT22;42382;53.210;5.772;2023-12-20T14:47:02;7.50;92.20
56478;DHT22;42382;53.210;5.772;2023-12-20T14:49:28;7.60;92.00
56478;DHT22;42382;53.210;5.772;2023-12-20T14:51:53;7.60;92.00
56478;DHT22;42382;53.210;5.772;2023-12-20T14:54:19;7.60;91.90
56478;DHT22;42382;53.210;5.772;2023-12-20T14:56:46;7.70;91.80
56478;DHT22;42382;53.210;5.772;2023-12-20T14:59:12;7.70;91.70
56478;DHT22;42382;53.210;5.772;2023-12-20T15:01:38;7.70;91.70
56478;DHT22;42382;53.210;5.772;2023-12-20T15:04:06;7.70;91.60
56478;DHT22;42382;53.210;5.772;2023-12-20T15:06:32;7.80;91.60
56478;DHT22;42382;53.210;5.772;2023-12-20T15:08:58;7.80;91.60
56478;DHT22;42382;53.210;5.772;2023-12-20T15:11:24;7.80;91.80
56478;DHT22;42382;53.210;5.772;2023-12-20T15:13:49;7.80;91.90
56478;DHT22;42382;53.210;5.772;2023-12-20T15:16:21;7.80;91.80
56478;DHT22;42382;53.210;5.772;2023-12-20T15:18:46;7.80;91.80
56478;DHT22;42382;53.210;5.772;2023-12-20T15:21:12;7.90;91.90
56478;DHT22;42382;53.210;5.772;2023-12-20T15:23:38;7.80;92.00
56478;DHT22;42382;53.210;5.772;2023-12-20T15:26:03;7.90;92.20
56478;DHT22;42382;53.210;5.772;2023-12-20T15:28:30;7.90;92.10
56478;DHT22;42382;53.210;5.772;2023-12-20T15:30:55;7.80;91.90
56478;DHT22;42382;53.210;5.772;2023-12-20T15:33:22;7.80;91.50
56478;DHT22;42382;53.210;5.772;2023-12-20T15:35:47;7.70;91.10
56478;DHT22;42382;53.210;5.772;2023-12-20T15:38:13;7.70;90.90
56478;DHT22;42382;53.210;5.772;2023-12-20T15:40:39;7.70;90.90
56478;DHT22;42382;53.210;5.772;2023-12-20T15:43:04;7.70;91.10